Time;durP1;ratioP1;P1;durP2;ratioP2;P2;SDS_P1;SDS_P2;PMS_P1;PMS_P2;Temp;Humidity;BMP_temperature;BMP_pressure;BME280_temperature;BME280_humidity;BME280_pressure;Samples;Min_cycle;Max_cycle;Signal;HPM_P1;HPM_P2
2020/12/25 00:01:06;;;;;;;8.50;4.57;;;23.60;54.50;;;;;;6225707;28;20033;-66
2020/12/25 00:04:06;;;;;;;14.68;4.82;;;23.70;54.50;;;;;;6225058;28;20057;-65
2020/12/25 00:07:07;;;;;;;8.37;4.20;;;23.70;54.40;;;;;;6225859;28;20030;-65
2020/12/25 00:10:08;;;;;;;6.37;4.10;;;23.70;54.40;;;;;;6225814;28;20049;-65
2020/12/25 00:13:08;;;;;;;6.73;3.53;;;23.70;54.30;;;;;;6225703;28;20393;-66
2020/12/25 00:16:09;;;;;;;7.53;4.00;;;23.70;54.30;;;;;;6224707;28;20105;-66
2020/12/25 00:19:09;;;;;;;6.97;3.50;;;23.70;54.20;;;;;;6225504;28;20080;-64
2020/12/25 00:22:10;;;;;;;5.97;3.77;;;23.80;54.20;;;;;;6225999;28;20037;-65
2020/12/25 00:25:11;;;;;;;6.47;3.67;;;23.80;54.20;;;;;;6225697;28;20022;-65
2020/12/25 00:28:11;;;;;;;8.33;4.07;;;23.80;54.10;;;;;;6225065;28;20054;-66
2020/12/25 00:31:12;;;;;;;4.50;3.57;;;23.80;54.10;;;;;;6225394;28;20029;-66
2020/12/25 00:34:13;;;;;;;7.57;3.90;;;23.80;54.10;;;;;;6225045;28;20464;-68
2020/12/25 00:37:13;;;;;;;6.77;3.93;;;23.80;54.00;;;;;;6225105;28;20109;-65
2020/12/25 00:40:14;;;;;;;4.93;3.70;;;23.90;54.00;;;;;;6225351;28;20034;-65
2020/12/25 00:43:14;;;;;;;7.33;3.63;;;23.90;54.00;;;;;;6225244;28;20100;-67
2020/12/25 00:46:15;;;;;;;5.47;3.63;;;23.90;54.00;;;;;;6223775;28;20052;-67
2020/12/25 00:49:16;;;;;;;6.63;3.70;;;23.90;53.90;;;;;;6207470;28;20136;-67
2020/12/25 00:52:17;;;;;;;5.00;3.70;;;23.90;53.90;;;;;;6224935;28;20057;-66
2020/12/25 00:55:17;;;;;;;7.80;3.53;;;23.90;53.80;;;;;;6224621;28;20457;-66
2020/12/25 00:58:18;;;;;;;5.50;3.83;;;23.90;53.80;;;;;;6224731;28;20034;-66
2020/12/25 01:01:18;;;;;;;7.07;3.40;;;23.90;53.80;;;;;;6223669;28;20109;-67
2020/12/25 01:04:19;;;;;;;6.13;3.43;;;24.00;53.80;;;;;;6224790;28;20480;-66
2020/12/25 01:07:20;;;;;;;6.00;3.63;;;23.90;53.70;;;;;;6223578;28;20076;-67
2020/12/25 01:10:20;;;;;;;6.57;3.47;;;24.00;53.80;;;;;;6224311;28;20033;-65
2020/12/25 01:13:21;;;;;;;3.73;2.80;;;24.00;53.70;;;;;;6223521;28;20435;-65
2020/12/25 01:16:22;;;;;;;7.13;3.33;;;24.00;53.70;;;;;;6224234;28;20053;-65
2020/12/25 01:19:23;;;;;;;4.03;2.93;;;24.00;53.70;;;;;;6224288;28;20104;-65
2020/12/25 01:22:24;;;;;;;4.25;3.28;;;24.00;53.70;;;;;;6223997;28;20480;-66
2020/12/25 01:25:24;;;;;;;5.30;3.20;;;24.00;53.70;;;;;;6224210;28;20029;-66
2020/12/25 01:28:25;;;;;;;4.30;3.30;;;24.00;53.70;;;;;;6223969;28;20100;-68
2020/12/25 01:31:25;;;;;;;5.07;3.60;;;24.00;53.70;;;;;;6224259;28;20025;-65
2020/12/25 01:34:26;;;;;;;4.60;3.10;;;24.00;53.60;;;;;;6222653;28;20083;-65
2020/12/25 01:37:26;;;;;;;4.47;3.00;;;24.00;53.60;;;;;;6223846;28;20392;-65
2020/12/25 01:40:27;;;;;;;6.57;3.13;;;24.00;53.60;;;;;;6223693;28;20109;-66
2020/12/25 01:43:28;;;;;;;3.33;3.03;;;24.00;53.60;;;;;;6223669;28;20025;-67
2020/12/25 01:46:28;;;;;;;4.07;2.90;;;24.00;53.60;;;;;;6223674;28;20109;-65
2020/12/25 01:49:29;;;;;;;4.27;2.70;;;24.00;53.60;;;;;;6222211;28;20041;-68
2020/12/25 01:52:30;;;;;;;3.63;3.03;;;24.00;53.50;;;;;;6222800;28;20149;-66
2020/12/25 01:55:32;;;;;;;4.23;2.80;;;24.00;53.50;;;;;;6222245;28;20030;-65
2020/12/25 01:58:33;;;;;;;3.95;2.60;;;24.00;53.50;;;;;;6222426;28;20061;-65
2020/12/25 02:01:33;;;;;;;3.87;2.90;;;24.10;53.50;;;;;;6223711;28;20028;-65
2020/12/25 02:04:34;;;;;;;3.33;2.80;;;24.00;53.50;;;;;;6206198;28;20026;-66
2020/12/25 02:07:35;;;;;;;3.20;2.83;;;24.00;53.40;;;;;;6223138;28;20033;-66
2020/12/25 02:10:36;;;;;;;3.67;2.90;;;24.00;53.50;;;;;;6222069;28;20033;-66
2020/12/25 02:13:36;;;;;;;3.47;2.60;;;24.10;53.50;;;;;;6222014;28;20025;-68
2020/12/25 02:16:37;;;;;;;5.27;2.63;;;24.00;53.40;;;;;;6221852;28;20034;-65
2020/12/25 02:19:38;;;;;;;3.30;2.73;;;24.10;53.40;;;;;;6223038;28;20470;-65
2020/12/25 02:22:39;;;;;;;4.27;2.70;;;24.00;53.30;;;;;;6222028;28;20065;-66
2020/12/25 02:25:39;;;;;;;4.27;2.90;;;24.00;53.30;;;;;;6221567;28;20475;-65
2020/12/25 02:28:41;;;;;;;3.63;2.50;;;24.00;53.30;;;;;;6222894;28;20054;-65
2020/12/25 02:31:41;;;;;;;5.15;2.83;;;24.10;53.40;;;;;;6223015;28;20046;-66
2020/12/25 02:34:42;;;;;;;3.43;2.67;;;24.10;53.30;;;;;;6222877;28;20052;-66
2020/12/25 02:37:42;;;;;;;3.13;2.60;;;24.00;53.30;;;;;;6222818;28;20084;-66
2020/12/25 02:40:43;;;;;;;3.57;2.90;;;24.00;53.30;;;;;;6222809;28;20022;-66
2020/12/25 02:43:44;;;;;;;3.73;2.60;;;24.00;53.30;;;;;;6222737;28;20022;-65
2020/12/25 02:46:45;;;;;;;2.83;2.37;;;24.10;53.30;;;;;;6221501;28;20041;-64
2020/12/25 02:49:46;;;;;;;4.15;2.88;;;24.00;53.20;;;;;;6221362;28;20446;-68
2020/12/25 02:52:47;;;;;;;4.10;2.60;;;24.10;53.30;;;;;;6222821;28;20038;-66
2020/12/25 02:55:47;;;;;;;3.13;2.37;;;24.10;53.30;;;;;;6222732;28;20452;-67
2020/12/25 02:58:48;;;;;;;2.70;2.50;;;24.00;53.20;;;;;;6222733;28;20034;-66
2020/12/25 03:01:49;;;;;;;3.70;2.20;;;24.10;53.20;;;;;;6222565;28;20029;-65
2020/12/25 03:04:50;;;;;;;3.28;2.50;;;24.00;53.10;;;;;;6221532;28;20042;-66
2020/12/25 03:07:51;;;;;;;2.77;2.37;;;24.00;53.20;;;;;;6222407;28;20074;-68
2020/12/25 03:10:51;;;;;;;2.27;2.03;;;24.00;53.10;;;;;;6222640;28;20459;-66
2020/12/25 03:13:52;;;;;;;3.70;2.30;;;24.00;53.10;;;;;;6222540;28;20025;-68
2020/12/25 03:16:52;;;;;;;2.63;2.43;;;24.10;53.20;;;;;;6222658;28;20026;-65
2020/12/25 03:19:53;;;;;;;2.93;2.30;;;24.00;53.10;;;;;;6222986;28;20034;-65
2020/12/25 03:22:53;;;;;;;2.73;2.33;;;24.10;53.20;;;;;;6222343;28;20026;-66
2020/12/25 03:25:54;;;;;;;2.47;2.13;;;24.00;53.10;;;;;;6222514;28;20465;-65
2020/12/25 03:28:55;;;;;;;2.13;1.80;;;24.10;53.10;;;;;;6222137;28;20129;-65
2020/12/25 03:31:55;;;;;;;2.50;2.20;;;24.00;53.10;;;;;;6221081;28;20034;-68
2020/12/25 03:34:56;;;;;;;4.17;2.30;;;24.00;53.10;;;;;;6222192;28;20439;-68
2020/12/25 03:37:56;;;;;;;4.20;2.33;;;24.00;53.10;;;;;;6225366;28;20037;-68
2020/12/25 03:40:57;;;;;;;2.40;2.20;;;24.00;53.10;;;;;;6226684;28;20036;-65
2020/12/25 03:43:57;;;;;;;2.50;2.17;;;24.00;53.00;;;;;;6225117;28;20022;-67
2020/12/25 03:46:58;;;;;;;2.73;2.30;;;24.10;53.10;;;;;;6226563;28;20038;-66
2020/12/25 03:49:59;;;;;;;4.27;2.47;;;24.00;53.00;;;;;;6226235;28;20038;-68
2020/12/25 03:52:59;;;;;;;3.37;2.47;;;24.00;53.00;;;;;;6226081;28;20487;-67
2020/12/25 03:56:00;;;;;;;2.97;2.00;;;24.00;53.10;;;;;;6226656;28;20045;-66
2020/12/25 03:59:00;;;;;;;2.47;2.17;;;24.00;53.00;;;;;;6226118;28;20400;-66
2020/12/25 04:02:01;;;;;;;3.17;2.30;;;24.00;53.00;;;;;;6225980;28;20037;-66
2020/12/25 04:05:02;;;;;;;2.43;2.10;;;24.00;53.00;;;;;;6225951;28;20354;-66
2020/12/25 04:08:02;;;;;;;2.63;2.10;;;24.00;53.00;;;;;;6225891;28;20033;-68
2020/12/25 04:11:03;;;;;;;2.20;2.00;;;24.00;53.00;;;;;;6225651;28;20786;-66
2020/12/25 04:14:04;;;;;;;2.97;2.27;;;24.00;53.00;;;;;;6225890;28;20029;-65
2020/12/25 04:17:04;;;;;;;1.93;1.80;;;24.00;53.00;;;;;;6225675;28;20036;-67
2020/12/25 04:20:05;;;;;;;2.30;1.90;;;24.00;53.00;;;;;;6225654;28;20034;-65
2020/12/25 04:23:05;;;;;;;1.80;1.70;;;24.00;53.00;;;;;;6224262;28;20053;-64
2020/12/25 04:26:09;;;;;;;2.90;1.87;;;24.00;52.90;;;;;;6225524;28;20087;-67
2020/12/25 04:29:10;;;;;;;2.15;1.95;;;24.00;53.00;;;;;;6225541;28;20098;-65
2020/12/25 04:32:10;;;;;;;2.20;1.90;;;24.00;52.90;;;;;;6225576;28;20036;-68
2020/12/25 04:35:11;;;;;;;1.83;1.63;;;24.00;52.90;;;;;;6225239;28;20384;-67
2020/12/25 04:38:12;;;;;;;2.07;1.87;;;24.00;52.90;;;;;;6224137;28;20056;-66
2020/12/25 04:41:12;;;;;;;2.03;1.83;;;24.00;52.90;;;;;;6225479;28;20518;-66
2020/12/25 04:44:13;;;;;;;1.93;1.60;;;24.00;52.90;;;;;;6223780;28;20391;-66
2020/12/25 04:47:13;;;;;;;1.73;1.63;;;24.00;52.90;;;;;;6225379;28;20025;-68
2020/12/25 04:50:14;;;;;;;2.17;1.90;;;24.00;52.90;;;;;;6225111;28;20050;-65
2020/12/25 04:53:15;;;;;;;2.23;2.03;;;24.00;52.90;;;;;;6223893;28;20160;-66
2020/12/25 04:56:16;;;;;;;2.10;1.87;;;24.00;52.90;;;;;;6223804;28;20026;-67
2020/12/25 04:59:17;;;;;;;;;;;24.00;52.90;;;;;;6224375;28;20435;-65
2020/12/25 05:02:17;;;;;;;1.60;1.50;;;24.00;52.80;;;;;;6224814;28;19909;-68
2020/12/25 05:05:23;;;;;;;2.10;1.90;;;24.00;52.90;;;;;;6223262;28;20037;-68
2020/12/25 05:08:24;;;;;;;3.78;1.90;;;24.00;52.90;;;;;;6223339;28;20030;-66
2020/12/25 05:11:25;;;;;;;1.95;1.75;;;24.00;52.90;;;;;;6223422;28;20048;-66
2020/12/25 05:14:30;;;;;;;3.23;2.13;;;24.00;52.90;;;;;;6224518;28;20484;-66
2020/12/25 05:17:31;;;;;;;2.83;1.70;;;24.00;52.90;;;;;;6223075;28;20029;-65
2020/12/25 05:20:31;;;;;;;2.20;2.00;;;24.00;52.90;;;;;;6223078;28;20511;-66
2020/12/25 05:23:32;;;;;;;2.57;1.80;;;24.00;52.80;;;;;;6223130;28;20457;-66
2020/12/25 05:26:33;;;;;;;2.00;1.60;;;24.00;52.80;;;;;;6224298;28;20030;-68
2020/12/25 05:29:33;;;;;;;1.93;1.83;;;24.00;52.80;;;;;;6223697;28;20046;-67
2020/12/25 05:32:34;;;;;;;2.43;1.80;;;24.00;52.80;;;;;;6223141;28;20034;-67
2020/12/25 05:35:35;;;;;;;2.27;1.87;;;24.00;52.80;;;;;;6222981;28;20061;-66
2020/12/25 05:38:37;;;;;;;4.78;2.05;;;24.00;52.80;;;;;;6223056;28;20033;-65
2020/12/25 05:41:37;;;;;;;2.35;1.80;;;24.00;52.80;;;;;;6222645;28;20022;-66
2020/12/25 05:44:46;;;;;;;2.27;2.07;;;24.00;52.80;;;;;;6222658;28;20108;-67
2020/12/25 05:48:01;;;;;;;2.60;1.65;;;24.00;52.80;;;;;;6223140;28;20030;-65
2020/12/25 05:51:09;;;;;;;2.47;1.73;;;24.00;53.40;;;;;;6222460;28;20029;-66
2020/12/25 05:54:10;;;;;;;3.05;1.65;;;24.00;52.80;;;;;;6223836;28;20026;-67
2020/12/25 05:57:10;;;;;;;2.63;2.10;;;24.00;52.80;;;;;;6222332;28;20084;-68
2020/12/25 06:00:11;;;;;;;3.30;1.73;;;23.90;52.70;;;;;;6221975;28;20022;-65
2020/12/25 06:03:13;;;;;;;2.33;1.87;;;23.90;52.70;;;;;;6222114;28;20156;-67
2020/12/25 06:06:14;;;;;;;2.70;1.80;;;23.90;52.80;;;;;;6222431;28;20022;-65
2020/12/25 06:09:17;;;;;;;3.27;1.80;;;23.90;52.80;;;;;;6223333;28;20025;-66
2020/12/25 06:12:17;;;;;;;2.10;1.80;;;23.90;52.80;;;;;;6222294;28;20358;-66
2020/12/25 06:15:25;;;;;;;3.40;1.60;;;23.90;52.80;;;;;;6222047;28;20029;-68
2020/12/25 06:19:01;;;;;;;2.50;1.70;;;23.90;52.80;;;;;;6222228;28;20022;-65
2020/12/25 06:22:04;;;;;;;1.40;1.30;;;23.90;52.80;;;;;;6196447;28;20109;-66
2020/12/25 06:25:07;;;;;;;2.05;1.88;;;24.00;52.80;;;;;;6222529;28;20018;-65
2020/12/25 06:28:08;;;;;;;2.05;1.85;;;23.90;52.70;;;;;;6205496;28;20493;-66
2020/12/25 06:31:10;;;;;;;1.70;1.60;;;23.90;52.80;;;;;;6223398;28;20105;-68
2020/12/25 06:34:11;;;;;;;1.67;1.58;;;23.90;52.70;;;;;;6222051;28;20033;-66
2020/12/25 06:37:13;;;;;;;3.97;1.57;;;23.90;52.70;;;;;;6222026;28;20460;-65
2020/12/25 06:40:15;;;;;;;2.08;1.77;;;23.90;52.70;;;;;;6223355;28;20029;-65
2020/12/25 06:43:20;;;;;;;2.28;1.92;;;23.90;52.70;;;;;;6205423;28;20388;-66
2020/12/25 06:46:29;;;;;;;3.97;1.75;;;23.90;52.70;;;;;;6222952;28;20077;-66
2020/12/25 06:49:35;;;;;;;1.80;1.50;;;23.90;52.70;;;;;;6205768;28;20343;-66
2020/12/25 06:52:52;;;;;;;2.13;1.92;;;23.90;52.70;;;;;;6223076;28;20026;-66
2020/12/25 06:55:53;;;;;;;3.00;1.95;;;23.90;52.70;;;;;;6223375;28;20026;-67
2020/12/25 06:58:54;;;;;;;2.35;2.00;;;23.90;52.80;;;;;;6221644;28;20073;-65
2020/12/25 07:01:55;;;;;;;1.57;1.47;;;23.90;52.80;;;;;;6223046;28;20026;-65
2020/12/25 07:05:02;;;;;;;1.73;1.63;;;23.90;52.80;;;;;;6222684;28;20026;-66
2020/12/25 07:08:02;;;;;;;2.22;1.90;;;23.90;52.80;;;;;;6222568;28;20030;-68
2020/12/25 07:11:04;;;;;;;2.43;1.60;;;23.90;52.80;;;;;;6221503;28;20107;-65
2020/12/25 07:14:05;;;;;;;;;;;23.90;52.80;;;;;;6227960;28;20037;-66
2020/12/25 07:17:05;;;;;;;2.25;1.90;;;23.90;52.80;;;;;;6226258;28;20706;-66
2020/12/25 07:20:09;;;;;;;1.87;1.73;;;23.80;52.80;;;;;;6227091;28;20026;-67
2020/12/25 07:23:10;;;;;;;3.90;2.22;;;23.80;52.90;;;;;;6227271;28;20385;-65
2020/12/25 07:26:11;;;;;;;1.90;1.70;;;23.90;52.90;;;;;;6225800;28;20038;-68
2020/12/25 07:29:14;;;;;;;2.70;2.00;;;23.90;52.90;;;;;;6225269;28;20046;-66
2020/12/25 07:32:15;;;;;;;4.20;2.20;;;23.90;53.00;;;;;;6225710;28;20064;-67
2020/12/25 07:35:16;;;;;;;3.57;2.03;;;23.90;53.20;;;;;;6227267;28;20030;-65
2020/12/25 07:38:17;;;;;;;5.10;2.90;;;23.90;53.40;;;;;;6227056;28;20369;-66
2020/12/25 07:41:17;;;;;;;7.57;2.30;;;23.90;53.60;;;;;;6209532;28;20034;-64
2020/12/25 07:44:18;;;;;;;5.53;2.13;;;23.90;53.70;;;;;;6226515;28;20531;-64
2020/12/25 07:47:19;;;;;;;9.00;2.80;;;23.90;53.80;;;;;;6225412;28;20056;-68
2020/12/25 07:50:20;;;;;;;9.93;2.60;;;23.90;54.10;;;;;;6226370;28;20056;-66
2020/12/25 07:53:20;;;;;;;10.43;3.13;;;24.00;54.50;;;;;;6226081;28;20034;-66
2020/12/25 07:56:22;;;;;;;13.70;3.60;;;24.00;54.80;;;;;;6226560;28;20030;-67
2020/12/25 07:59:23;;;;;;;12.57;2.97;;;24.00;54.60;;;;;;6225077;28;20156;-64
2020/12/25 08:02:24;;;;;;;20.00;3.93;;;23.90;53.80;;;;;;6228835;28;20104;-64
2020/12/25 08:05:28;;;;;;;17.67;3.20;;;23.90;54.10;;;;;;6238364;28;20109;-62
2020/12/25 08:08:29;;;;;;;18.38;4.55;;;23.90;54.20;;;;;;6245267;28;20037;-63
2020/12/25 08:11:29;;;;;;;14.97;4.60;;;23.90;54.30;;;;;;6247391;28;20021;-65
2020/12/25 08:14:30;;;;;;;18.23;5.07;;;23.90;54.50;;;;;;6253038;28;20029;-63
2020/12/25 08:17:30;;;;;;;19.57;4.87;;;23.90;54.50;;;;;;6250274;28;20033;-64
2020/12/25 08:20:34;;;;;;;24.20;6.57;;;24.00;54.70;;;;;;6240507;28;20044;-65
2020/12/25 08:23:35;;;;;;;35.67;8.63;;;24.00;55.00;;;;;;6240678;28;20129;-66
2020/12/25 08:26:40;;;;;;;29.37;8.20;;;24.00;55.50;;;;;;6225592;28;20026;-66
2020/12/25 08:29:40;;;;;;;18.85;6.28;;;24.00;54.00;;;;;;6239852;28;20613;-67
2020/12/25 08:32:41;;;;;;;13.27;5.00;;;23.90;51.50;;;;;;6245363;28;20055;-67
2020/12/25 08:35:42;;;;;;;6.90;3.60;;;23.80;50.20;;;;;;6241558;28;20057;-66
2020/12/25 08:38:43;;;;;;;18.40;4.97;;;23.60;49.30;;;;;;6244296;28;20032;-67
2020/12/25 08:41:52;;;;;;;12.73;4.20;;;23.60;49.20;;;;;;6228829;28;20108;-67
2020/12/25 08:44:56;;;;;;;16.45;5.30;;;23.50;49.20;;;;;;6223897;28;20022;-68
2020/12/25 08:48:23;;;;;;;22.73;6.43;;;23.50;49.50;;;;;;6225025;28;20084;-63
2020/12/25 08:51:24;;;;;;;25.42;5.80;;;23.50;49.80;;;;;;6223315;28;20126;-64
2020/12/25 08:54:28;;;;;;;24.43;5.57;;;23.50;50.20;;;;;;6226371;28;20029;-68
2020/12/25 08:57:30;;;;;;;33.00;5.43;;;23.50;50.50;;;;;;6246279;28;20096;-64
2020/12/25 09:00:30;;;;;;;29.65;6.35;;;23.50;50.70;;;;;;6248012;28;20109;-65
2020/12/25 09:03:38;;;;;;;26.20;6.23;;;23.60;51.10;;;;;;6248937;28;20040;-67
2020/12/25 09:06:39;;;;;;;24.40;6.20;;;23.60;52.50;;;;;;6247677;28;20155;-64
2020/12/25 09:09:39;;;;;;;25.60;5.23;;;23.70;53.10;;;;;;6247464;28;20025;-67
2020/12/25 09:12:40;;;;;;;27.27;6.23;;;23.70;53.10;;;;;;6247340;28;20033;-67
2020/12/25 09:15:40;;;;;;;25.80;6.70;;;23.70;53.30;;;;;;6234800;28;20472;-65
2020/12/25 09:18:41;;;;;;;21.93;5.53;;;23.70;53.50;;;;;;6246104;28;20465;-66
2020/12/25 09:21:42;;;;;;;27.97;7.47;;;23.80;53.70;;;;;;6232041;28;20105;-64
2020/12/25 09:24:44;;;;;;;31.47;6.30;;;23.80;54.00;;;;;;6224448;28;20061;-63
2020/12/25 09:27:45;;;;;;;27.33;7.13;;;23.80;54.30;;;;;;6260388;28;20357;-63
2020/12/25 09:30:46;;;;;;;33.43;8.53;;;23.80;54.40;;;;;;6248760;28;20089;-67
2020/12/25 09:33:46;;;;;;;28.17;7.37;;;23.80;54.70;;;;;;6263293;28;20030;-64
2020/12/25 09:36:47;;;;;;;27.33;6.93;;;23.80;54.60;;;;;;6249048;28;20123;-64
2020/12/25 09:39:47;;;;;;;43.83;7.80;;;23.80;54.60;;;;;;6248500;28;20025;-66
2020/12/25 09:42:48;;;;;;;32.60;6.77;;;23.90;54.70;;;;;;6248328;28;20052;-66
2020/12/25 09:45:48;;;;;;;33.80;7.53;;;23.90;54.80;;;;;;6247812;28;20021;-66
2020/12/25 09:48:49;;;;;;;24.00;6.37;;;23.90;54.80;;;;;;6262369;28;20025;-66
2020/12/25 09:51:50;;;;;;;39.50;8.07;;;23.90;54.80;;;;;;6248140;28;20112;-65
2020/12/25 09:54:50;;;;;;;37.30;6.67;;;23.90;54.60;;;;;;6247789;28;20029;-65
2020/12/25 09:57:51;;;;;;;18.90;5.57;;;23.90;54.70;;;;;;6247980;28;20022;-65
2020/12/25 10:00:52;;;;;;;24.67;6.93;;;23.90;54.60;;;;;;6247868;28;20474;-63
2020/12/25 10:03:52;;;;;;;26.55;6.85;;;23.80;54.60;;;;;;6239265;28;20033;-65
2020/12/25 10:06:57;;;;;;;18.07;6.00;;;23.80;54.50;;;;;;6223305;28;20038;-64
2020/12/25 10:09:57;;;;;;;20.40;5.28;;;23.80;54.80;;;;;;6222382;28;20033;-65
2020/12/25 10:12:58;;;;;;;17.77;5.73;;;23.80;53.50;;;;;;6221832;28;20088;-65
2020/12/25 10:15:59;;;;;;;18.07;5.37;;;23.80;52.60;;;;;;6220914;28;20029;-65
2020/12/25 10:18:59;;;;;;;22.60;5.67;;;23.80;53.10;;;;;;6221926;28;20049;-67
2020/12/25 10:22:00;;;;;;;18.27;6.13;;;23.80;53.60;;;;;;6221781;28;20034;-65
2020/12/25 10:25:01;;;;;;;24.97;5.43;;;23.80;53.60;;;;;;6223090;28;20114;-66
2020/12/25 10:28:02;;;;;;;25.90;5.53;;;23.80;52.30;;;;;;6222727;28;20073;-67
2020/12/25 10:31:02;;;;;;;26.07;5.87;;;23.80;51.60;;;;;;6223466;28;20041;-68
2020/12/25 10:34:03;;;;;;;20.67;5.33;;;23.80;51.40;;;;;;6223273;28;20041;-65
2020/12/25 10:37:03;;;;;;;12.37;4.23;;;23.70;52.20;;;;;;6222874;28;20177;-66
2020/12/25 10:40:04;;;;;;;13.77;4.30;;;23.70;52.60;;;;;;6222549;28;20033;-69
2020/12/25 10:43:05;;;;;;;12.27;4.80;;;23.60;50.80;;;;;;6222794;28;20063;-65
2020/12/25 10:46:06;;;;;;;15.07;5.03;;;23.50;48.90;;;;;;6225408;28;20272;-67
2020/12/25 10:49:06;;;;;;;12.33;4.57;;;23.40;48.80;;;;;;6227407;28;20496;-65
2020/12/25 10:52:07;;;;;;;15.97;4.83;;;23.40;49.20;;;;;;6210851;28;20030;-66
2020/12/25 10:55:07;;;;;;;13.73;4.50;;;23.30;49.40;;;;;;6227930;28;20034;-66
2020/12/25 10:58:08;;;;;;;10.57;4.27;;;23.30;49.70;;;;;;6226674;28;20034;-65
2020/12/25 11:01:18;;;;;;;14.23;4.33;;;23.30;49.60;;;;;;6226557;28;20072;-64
2020/12/25 11:04:19;;;;;;;11.18;4.28;;;23.40;49.90;;;;;;6230013;28;20045;-65
2020/12/25 11:07:20;;;;;;;11.03;4.73;;;23.40;50.60;;;;;;6227850;28;20040;-65
2020/12/25 11:10:20;;;;;;;10.67;4.27;;;23.40;50.90;;;;;;6227734;28;20046;-66
2020/12/25 11:13:21;;;;;;;9.90;4.00;;;23.40;51.10;;;;;;6227416;28;20030;-66
2020/12/25 11:16:28;;;;;;;7.47;3.73;;;23.40;51.20;;;;;;6227277;28;20544;-65
2020/12/25 11:19:28;;;;;;;9.45;4.60;;;23.40;51.40;;;;;;6226223;28;20065;-65
2020/12/25 11:22:29;;;;;;;10.37;4.57;;;23.40;51.50;;;;;;6209373;28;20048;-63
2020/12/25 11:25:30;;;;;;;12.83;4.47;;;23.40;51.70;;;;;;6227108;28;20030;-63
2020/12/25 11:28:30;;;;;;;6.97;3.97;;;23.40;51.80;;;;;;6226405;28;20069;-64
2020/12/25 11:31:31;;;;;;;11.67;4.37;;;23.40;51.30;;;;;;6227202;28;20380;-65
2020/12/25 11:34:32;;;;;;;13.80;4.13;;;23.40;51.10;;;;;;6225435;28;20026;-65
2020/12/25 11:37:35;;;;;;;20.07;5.27;;;23.40;50.70;;;;;;6226849;28;20384;-65
2020/12/25 11:40:36;;;;;;;25.58;5.88;;;23.40;50.70;;;;;;6224996;28;20054;-64
2020/12/25 11:43:37;;;;;;;28.00;6.33;;;23.40;51.80;;;;;;6241005;28;20090;-64
2020/12/25 11:46:37;;;;;;;30.80;5.60;;;23.40;52.60;;;;;;6245711;28;20038;-66
2020/12/25 11:49:38;;;;;;;20.77;5.37;;;23.40;53.80;;;;;;6247873;28;20115;-68
2020/12/25 11:52:38;;;;;;;21.87;5.27;;;23.40;54.40;;;;;;6250380;28;20022;-64
2020/12/25 11:55:39;;;;;;;19.47;5.67;;;23.50;53.10;;;;;;6250668;28;20065;-66
2020/12/25 11:58:40;;;;;;;24.60;5.53;;;23.50;54.20;;;;;;6248045;28;20053;-66
2020/12/25 12:01:40;;;;;;;30.03;6.93;;;23.50;55.10;;;;;;6249229;28;20033;-68
2020/12/25 12:04:41;;;;;;;27.53;6.73;;;23.50;56.20;;;;;;6250876;28;20029;-66
2020/12/25 12:07:41;;;;;;;24.53;7.03;;;23.60;57.00;;;;;;6237766;28;20042;-67
2020/12/25 12:10:42;;;;;;;26.50;7.00;;;23.60;57.20;;;;;;6241110;28;20034;-66
2020/12/25 12:13:43;;;;;;;24.23;5.97;;;23.60;57.80;;;;;;6250597;28;20072;-68
2020/12/25 12:16:43;;;;;;;26.73;5.93;;;23.70;58.30;;;;;;6246857;28;20030;-67
2020/12/25 12:19:44;;;;;;;27.30;6.43;;;23.70;58.70;;;;;;6225847;28;20105;-68
2020/12/25 12:22:44;;;;;;;26.23;6.17;;;23.80;59.60;;;;;;6225779;28;20030;-66
2020/12/25 12:25:45;;;;;;;35.33;6.17;;;23.80;58.90;;;;;;6225622;28;20131;-64
2020/12/25 12:28:45;;;;;;;24.30;7.40;;;23.80;58.90;;;;;;6227297;28;20133;-65
2020/12/25 12:31:46;;;;;;;21.77;6.23;;;23.80;58.30;;;;;;6264305;28;20030;-64
2020/12/25 12:34:47;;;;;;;23.77;6.73;;;23.80;57.90;;;;;;6238256;28;20075;-64
2020/12/25 12:37:48;;;;;;;23.27;5.82;;;23.80;58.10;;;;;;6250005;28;20029;-64
2020/12/25 12:40:50;;;;;;;25.60;6.27;;;23.80;57.90;;;;;;6250364;28;20030;-65
2020/12/25 12:43:51;;;;;;;25.25;6.18;;;23.80;57.60;;;;;;6249707;28;20025;-63
2020/12/25 12:46:55;;;;;;;21.08;5.43;;;23.80;58.40;;;;;;6248829;28;20444;-64
2020/12/25 12:49:56;;;;;;;25.15;5.40;;;23.80;58.00;;;;;;6228668;28;20493;-64
2020/12/25 12:52:57;;;;;;;19.90;5.50;;;23.80;57.60;;;;;;6225162;28;20029;-67
2020/12/25 12:55:57;;;;;;;17.80;5.13;;;23.70;57.60;;;;;;6240148;28;20080;-65
2020/12/25 12:58:58;;;;;;;21.90;5.37;;;23.70;57.60;;;;;;6224900;28;20456;-64
2020/12/25 13:01:58;;;;;;;23.20;5.90;;;23.70;57.50;;;;;;6224863;28;20030;-67
2020/12/25 13:04:59;;;;;;;19.27;4.90;;;23.70;57.80;;;;;;6225137;28;20030;-64
2020/12/25 13:08:00;;;;;;;22.40;5.10;;;23.70;57.80;;;;;;6224409;28;20026;-66
2020/12/25 13:11:00;;;;;;;21.77;5.73;;;23.60;58.10;;;;;;6232537;28;20045;-65
2020/12/25 13:14:01;;;;;;;21.43;5.07;;;23.60;58.70;;;;;;6233190;28;20034;-65
2020/12/25 13:17:02;;;;;;;11.10;4.77;;;23.70;58.20;;;;;;6227919;28;20492;-64
2020/12/25 13:20:02;;;;;;;20.33;6.03;;;23.60;58.20;;;;;;6249249;28;20030;-65
2020/12/25 13:23:03;;;;;;;15.57;4.63;;;23.60;58.40;;;;;;6264230;28;20033;-64
2020/12/25 13:26:04;;;;;;;15.27;5.27;;;23.60;58.60;;;;;;6249008;28;20029;-66
2020/12/25 13:29:04;;;;;;;13.43;4.57;;;23.60;59.00;;;;;;6263518;28;20128;-66
2020/12/25 13:32:05;;;;;;;17.43;4.50;;;23.60;59.00;;;;;;6264206;28;20026;-66
2020/12/25 13:35:06;;;;;;;23.25;5.95;;;23.60;59.30;;;;;;6248669;28;20120;-65
2020/12/25 13:38:07;;;;;;;17.20;5.60;;;23.60;59.20;;;;;;6248580;28;20029;-64
2020/12/25 13:41:14;;;;;;;22.47;5.97;;;23.70;59.00;;;;;;6243112;28;20056;-65
2020/12/25 13:44:15;;;;;;;13.13;4.82;;;23.60;59.20;;;;;;6233858;28;20018;-65
2020/12/25 13:47:16;;;;;;;16.17;5.73;;;23.60;59.30;;;;;;6235965;28;20395;-67
2020/12/25 13:50:16;;;;;;;19.08;5.55;;;23.60;59.20;;;;;;6242101;28;20092;-65
2020/12/25 13:53:17;;;;;;;17.57;5.10;;;23.60;59.80;;;;;;6237413;28;20469;-62
2020/12/25 13:56:18;;;;;;;14.97;4.93;;;23.60;59.70;;;;;;6248040;28;20026;-66
2020/12/25 13:59:19;;;;;;;18.60;5.22;;;23.70;59.80;;;;;;6256753;28;20472;-66
2020/12/25 14:02:19;;;;;;;13.13;4.33;;;23.70;59.30;;;;;;6238155;28;20108;-68
2020/12/25 14:05:20;;;;;;;17.33;5.23;;;23.60;57.00;;;;;;6224259;28;20129;-68
2020/12/25 14:08:20;;;;;;;25.47;5.50;;;23.60;56.90;;;;;;6222745;28;20034;-66
2020/12/25 14:11:21;;;;;;;27.17;5.67;;;23.60;56.50;;;;;;6223671;28;20396;-65
2020/12/25 14:14:22;;;;;;;24.37;5.07;;;23.60;56.10;;;;;;6223733;28;20026;-65
2020/12/25 14:17:22;;;;;;;26.47;6.07;;;23.60;55.90;;;;;;6223392;28;20022;-65
2020/12/25 14:20:23;;;;;;;16.53;4.57;;;23.50;57.00;;;;;;6222996;28;20489;-64
2020/12/25 14:23:23;;;;;;;17.17;5.43;;;23.50;57.80;;;;;;6223110;28;20440;-66
2020/12/25 14:26:24;;;;;;;21.63;5.33;;;23.50;58.20;;;;;;6223292;28;20029;-65
2020/12/25 14:29:24;;;;;;;20.00;4.93;;;23.50;58.10;;;;;;6238020;28;20448;-64
2020/12/25 14:32:26;;;;;;;25.10;4.50;;;23.50;58.20;;;;;;6223329;28;20042;-65
2020/12/25 14:35:28;;;;;;;19.27;5.10;;;23.50;58.40;;;;;;6238116;28;20026;-65
2020/12/25 14:38:28;;;;;;;10.63;4.18;;;23.50;58.60;;;;;;6223295;28;20457;-67
2020/12/25 14:41:29;;;;;;;12.47;4.00;;;23.50;58.70;;;;;;6223016;28;20080;-65
2020/12/25 14:44:29;;;;;;;16.80;4.50;;;23.50;58.80;;;;;;6238346;28;20112;-63
2020/12/25 14:47:30;;;;;;;13.57;4.43;;;23.50;58.80;;;;;;6238809;28;20034;-65
2020/12/25 14:50:31;;;;;;;13.80;3.90;;;23.50;58.90;;;;;;6222693;28;20038;-64
2020/12/25 14:53:32;;;;;;;16.60;4.50;;;23.40;58.90;;;;;;6238411;28;20498;-64
2020/12/25 14:56:33;;;;;;;12.70;3.80;;;23.40;58.80;;;;;;6222882;28;20038;-64
2020/12/25 14:59:33;;;;;;;10.53;4.13;;;23.40;58.90;;;;;;6222912;28;20400;-65
2020/12/25 15:02:34;;;;;;;12.97;3.70;;;23.40;58.90;;;;;;6222971;28;20030;-65
2020/12/25 15:05:34;;;;;;;18.07;4.07;;;23.40;58.90;;;;;;6222884;28;20080;-65
2020/12/25 15:08:35;;;;;;;11.13;3.50;;;23.40;58.90;;;;;;6222644;28;20388;-65
2020/12/25 15:11:36;;;;;;;14.63;3.73;;;23.40;58.90;;;;;;6222435;28;20045;-65
2020/12/25 15:14:36;;;;;;;10.30;3.80;;;23.40;59.00;;;;;;6237873;28;20101;-65
2020/12/25 15:17:37;;;;;;;9.55;3.45;;;23.30;58.90;;;;;;6222536;28;20033;-64
2020/12/25 15:20:39;;;;;;;11.63;3.50;;;23.30;58.80;;;;;;6222686;28;20450;-66
2020/12/25 15:23:39;;;;;;;8.13;3.22;;;23.30;58.80;;;;;;6237336;28;20451;-65
2020/12/25 15:26:40;;;;;;;7.60;2.97;;;23.40;58.90;;;;;;6237872;28;20041;-64
2020/12/25 15:29:40;;;;;;;8.90;3.63;;;23.30;58.70;;;;;;6222575;28;20062;-65
2020/12/25 15:32:41;;;;;;;8.43;3.87;;;23.30;58.70;;;;;;6238893;28;20432;-65
2020/12/25 15:35:42;;;;;;;6.47;3.55;;;23.30;58.70;;;;;;6242492;28;20101;-66
2020/12/25 15:38:42;;;;;;;6.80;3.33;;;23.30;58.70;;;;;;6227053;28;20030;-64